Time;durP1;ratioP1;P1;durP2;ratioP2;P2;SDS_P1;SDS_P2;PMS_P1;PMS_P2;Temp;Humidity;BMP_temperature;BMP_pressure;BME280_temperature;BME280_humidity;BME280_pressure;Samples;Min_cycle;Max_cycle;Signal;HPM_P1;HPM_P2
2023/02/15 00:02:00;;;;;;;12.82;8.50;;;;;;;1.76;100.00;102289.28;4858081;29;20045;-78
2023/02/15 00:04:45;;;;;;;10.93;7.90;;;;;;;1.81;100.00;102274.00;4874946;29;20045;-77
2023/02/15 00:07:16;;;;;;;13.10;8.65;;;;;;;1.87;100.00;102278.63;4859125;29;20052;-77
2023/02/15 00:09:43;;;;;;;13.02;7.82;;;;;;;1.97;100.00;102275.72;4873014;29;20584;-81
2023/02/15 00:12:10;;;;;;;12.73;8.95;;;;;;;1.99;100.00;102271.50;4879228;29;20939;-79
2023/02/15 00:14:37;;;;;;;15.52;8.55;;;;;;;2.02;100.00;102270.78;4875064;29;20140;-78
2023/02/15 00:17:04;;;;;;;12.90;8.27;;;;;;;2.06;100.00;102255.53;4872213;29;20452;-81
2023/02/15 00:19:30;;;;;;;12.02;9.13;;;;;;;2.10;100.00;102266.91;4860687;29;20719;-77
2023/02/15 00:21:57;;;;;;;13.10;8.75;;;;;;;1.99;100.00;102266.34;4836639;29;20123;-79
2023/02/15 00:24:23;;;;;;;14.98;8.93;;;;;;;1.90;100.00;102265.88;4894683;29;20052;-78
2023/02/15 00:26:50;;;;;;;12.13;8.85;;;;;;;1.84;100.00;102266.44;4858582;29;20052;-76
2023/02/15 00:29:18;;;;;;;16.52;8.63;;;;;;;1.78;100.00;102271.28;4874002;29;20044;-85
2023/02/15 00:31:45;;;;;;;14.10;9.30;;;;;;;1.73;100.00;102264.97;4889247;29;20057;-81
2023/02/15 00:34:18;;;;;;;11.35;8.57;;;;;;;1.65;100.00;102256.81;4836265;29;20654;-82
2023/02/15 00:36:45;;;;;;;10.13;7.85;;;;;;;1.61;100.00;102245.44;4881893;29;20527;-80
2023/02/15 00:39:13;;;;;;;14.43;8.15;;;;;;;1.73;100.00;102245.19;4853079;29;20057;-83
2023/02/15 00:41:40;;;;;;;14.55;9.55;;;;;;;1.87;100.00;102243.34;4883436;29;20045;-78
2023/02/15 00:44:07;;;;;;;11.30;8.88;;;;;;;1.91;100.00;102239.25;4857808;29;20074;-82
2023/02/15 00:46:34;;;;;;;13.23;8.23;;;;;;;1.87;100.00;102239.91;4858609;29;20049;-78
2023/02/15 00:49:01;;;;;;;12.38;9.13;;;;;;;1.83;100.00;102241.44;4860255;29;20091;-78
2023/02/15 00:51:27;;;;;;;16.17;8.85;;;;;;;1.73;100.00;102232.28;4870468;29;20037;-79
2023/02/15 00:53:54;;;;;;;13.95;8.50;;;;;;;1.68;100.00;102241.50;4870717;29;20377;-79
2023/02/15 00:56:20;;;;;;;20.40;9.10;;;;;;;1.64;100.00;102244.72;4858324;29;20123;-79
2023/02/15 00:58:47;;;;;;;12.88;8.18;;;;;;;1.62;100.00;102241.19;4886914;29;20682;-79
2023/02/15 01:01:20;;;;;;;11.88;7.65;;;;;;;1.59;100.00;102241.91;4887783;29;20052;-81
2023/02/15 01:03:47;;;;;;;12.38;8.73;;;;;;;1.55;100.00;102236.50;4872826;29;20145;-81
2023/02/15 01:06:16;;;;;;;12.98;8.60;;;;;;;1.52;100.00;102239.78;4885302;29;20045;-77
2023/02/15 01:08:43;;;;;;;11.20;7.82;;;;;;;1.49;100.00;102240.50;4886747;29;20722;-77
2023/02/15 01:11:21;;;;;;;10.45;8.00;;;;;;;1.46;100.00;102240.38;4873905;29;20699;-77
2023/02/15 01:13:53;;;;;;;15.57;8.30;;;;;;;1.47;100.00;102247.31;4883930;29;20053;-78
2023/02/15 01:16:20;;;;;;;16.65;9.25;;;;;;;1.46;100.00;102235.19;4866857;29;20068;-78
2023/02/15 01:18:47;;;;;;;10.00;7.40;;;;;;;1.43;100.00;102239.31;4856080;29;20049;-78
2023/02/15 01:21:17;;;;;;;11.55;8.32;;;;;;;1.44;100.00;102233.34;4888318;29;20064;-83
2023/02/15 01:23:43;;;;;;;13.18;8.82;;;;;;;1.49;100.00;102237.94;4870367;29;20056;-77
2023/02/15 01:26:10;;;;;;;11.25;7.70;;;;;;;1.53;100.00;102225.22;4856444;29;20492;-78
2023/02/15 01:28:38;;;;;;;9.75;7.22;;;;;;;1.54;100.00;102224.38;4870794;29;20045;-76
2023/02/15 01:31:11;;;;;;;12.65;8.48;;;;;;;1.58;100.00;102229.81;4881968;29;20047;-77
2023/02/15 01:33:38;;;;;;;10.93;7.00;;;;;;;1.58;100.00;102218.59;4871662;29;20141;-77
2023/02/15 01:36:05;;;;;;;11.38;8.25;;;;;;;1.56;100.00;102222.78;4857423;29;20049;-79
2023/02/15 01:38:32;;;;;;;17.30;9.57;;;;;;;1.60;100.00;102222.13;4876075;29;20057;-82
2023/02/15 01:41:19;;;;;;;12.63;9.25;;;;;;;1.62;100.00;102221.41;4861547;29;20045;-82
2023/02/15 01:43:57;;;;;;;15.05;8.82;;;;;;;1.62;100.00;102220.53;4862452;29;20101;-78
2023/02/15 01:46:48;;;;;;;14.35;8.57;;;;;;;1.59;100.00;102215.19;4892426;29;20055;-83
2023/02/15 01:49:18;;;;;;;13.75;8.90;;;;;;;1.56;100.00;102223.66;4860968;29;20036;-80
2023/02/15 01:51:47;;;;;;;14.85;7.68;;;;;;;1.52;100.00;102216.56;4845708;29;21386;-79
2023/02/15 01:54:24;;;;;;;14.38;8.98;;;;;;;1.46;100.00;102211.06;4874470;29;20124;-78
2023/02/15 01:56:51;;;;;;;11.80;8.13;;;;;;;1.46;100.00;102216.22;4859027;29;20038;-79
2023/02/15 01:59:24;;;;;;;12.93;8.73;;;;;;;1.42;100.00;102207.47;4859167;29;20063;-83
2023/02/15 02:01:53;;;;;;;13.55;8.07;;;;;;;1.39;100.00;102208.97;4864564;29;20065;-81
2023/02/15 02:04:36;;;;;;;13.32;9.10;;;;;;;1.37;100.00;102202.84;4853871;29;20041;-79
2023/02/15 02:07:05;;;;;;;11.98;8.30;;;;;;;1.27;100.00;102202.34;4851521;29;20041;-85
2023/02/15 02:09:33;;;;;;;14.82;8.80;;;;;;;1.23;100.00;102202.13;4852586;29;20231;-80
2023/02/15 02:12:03;;;;;;;14.88;8.73;;;;;;;1.25;100.00;102196.22;4850053;29;20165;-83
2023/02/15 02:14:30;;;;;;;14.05;8.05;;;;;;;1.27;100.00;102192.03;4851140;29;20091;-80
2023/02/15 02:17:18;;;;;;;14.20;8.95;;;;;;;1.23;100.00;102191.78;4862144;29;20053;-82
2023/02/15 02:20:27;;;;;;;14.85;9.48;;;;;;;1.22;100.00;102185.72;4865903;29;20053;-77
2023/02/15 02:23:17;;;;;;;15.30;9.95;;;;;;;1.23;100.00;102184.06;4850288;29;21296;-79
2023/02/15 02:26:12;;;;;;;12.38;9.40;;;;;;;1.23;100.00;102182.34;4878471;29;20496;-79
2023/02/15 02:29:28;;;;;;;12.30;8.63;;;;;;;1.22;100.00;102178.00;4851427;29;20052;-80
2023/02/15 02:32:30;;;;;;;15.98;9.68;;;;;;;1.17;100.00;102171.69;4851302;29;20082;-81
2023/02/15 02:35:17;;;;;;;14.40;8.18;;;;;;;1.17;100.00;102170.81;4866785;29;20045;-82
2023/02/15 02:38:01;;;;;;;16.60;9.80;;;;;;;1.14;100.00;102167.25;4855113;29;20045;-78
2023/02/15 02:40:52;;;;;;;14.93;9.25;;;;;;;1.12;100.00;102173.13;4853432;29;20048;-79
2023/02/15 02:43:32;;;;;;;14.70;9.65;;;;;;;1.08;100.00;102164.38;4849291;29;20053;-80
2023/02/15 02:46:05;;;;;;;12.45;8.35;;;;;;;1.10;100.00;102157.59;4852960;29;20110;-81
2023/02/15 02:48:36;;;;;;;18.42;10.45;;;;;;;1.09;100.00;102160.97;4869714;29;21085;-78
2023/02/15 02:51:02;;;;;;;13.73;8.07;;;;;;;1.09;100.00;102157.50;4864702;29;20053;-80
2023/02/15 02:53:32;;;;;;;13.35;9.27;;;;;;;1.04;100.00;102157.25;4849291;29;20050;-79
2023/02/15 02:56:19;;;;;;;15.25;9.07;;;;;;;0.99;100.00;102154.44;4866831;29;20045;-79
2023/02/15 02:58:55;;;;;;;16.75;9.45;;;;;;;0.95;100.00;102155.06;4867997;29;20068;-81
2023/02/15 03:01:41;;;;;;;13.48;9.10;;;;;;;0.92;100.00;102149.72;4862175;29;20184;-81
2023/02/15 03:04:16;;;;;;;16.52;9.85;;;;;;;0.89;100.00;102149.56;4879514;29;20052;-80
2023/02/15 03:06:53;;;;;;;15.88;9.82;;;;;;;0.89;100.00;102152.16;4865037;29;20053;-79
2023/02/15 03:09:41;;;;;;;15.48;10.10;;;;;;;0.87;100.00;102151.16;4861605;29;20045;-83
2023/02/15 03:12:17;;;;;;;16.13;9.18;;;;;;;0.82;100.00;102147.44;4848071;29;20041;-80
2023/02/15 03:14:49;;;;;;;17.75;10.55;;;;;;;0.78;100.00;102145.50;4879225;29;20044;-83
2023/02/15 03:17:20;;;;;;;16.27;10.75;;;;;;;0.76;100.00;102141.97;4862606;29;20133;-80
2023/02/15 03:19:48;;;;;;;14.38;8.93;;;;;;;0.76;100.00;102134.25;4852162;29;20050;-83
2023/02/15 03:22:26;;;;;;;16.25;9.98;;;;;;;0.80;100.00;102133.59;4850373;29;20384;-78
2023/02/15 03:25:10;;;;;;;19.23;11.20;;;;;;;0.80;100.00;102128.44;4851890;29;20072;-77
2023/02/15 03:27:46;;;;;;;14.00;9.70;;;;;;;0.75;100.00;102125.59;4881260;29;20098;-77
2023/02/15 03:30:16;;;;;;;15.13;9.77;;;;;;;0.73;100.00;102126.31;4854509;29;20037;-81
2023/02/15 03:32:44;;;;;;;16.15;10.15;;;;;;;0.72;100.00;102128.03;4863828;29;20045;-80
2023/02/15 03:35:11;;;;;;;16.10;10.05;;;;;;;0.71;100.00;102118.50;4879069;29;20052;-80
2023/02/15 03:37:48;;;;;;;16.52;10.82;;;;;;;0.72;100.00;102124.53;4866336;29;20053;-78
2023/02/15 03:43:47;;;;;;;14.88;9.48;;;;;;;0.68;100.00;102120.03;4872523;29;20041;-81
2023/02/15 03:46:30;;;;;;;18.65;11.07;;;;;;;0.67;100.00;102124.31;4864732;29;20803;-81
2023/02/15 03:49:05;;;;;;;17.27;10.45;;;;;;;0.67;100.00;102124.31;4834971;29;20045;-80
2023/02/15 03:51:37;;;;;;;18.13;10.93;;;;;;;0.63;100.00;102127.53;4850369;29;20049;-79
2023/02/15 03:54:09;;;;;;;17.73;10.73;;;;;;;0.59;100.00;102125.59;4861050;29;20510;-78
2023/02/15 03:56:40;;;;;;;16.15;9.93;;;;;;;0.54;100.00;102125.31;4833965;29;20053;-79
2023/02/15 04:02:08;;;;;;;23.20;11.05;;;;;;;0.46;100.00;102131.75;4878683;29;20076;-79
2023/02/15 04:04:39;;;;;;;14.50;10.02;;;;;;;0.48;100.00;102135.28;4839939;29;20481;-79
2023/02/15 04:07:09;;;;;;;15.85;11.13;;;;;;;0.47;100.00;102131.81;4885187;29;20588;-86
2023/02/15 04:12:19;;;;;;;;;;;;;;;0.44;100.00;102116.19;4873475;29;20041;-81
2023/02/15 04:17:30;;;;;;;16.38;10.60;;;;;;;0.35;100.00;102115.66;4850273;29;20800;-82
2023/02/15 04:25:25;;;;;;;20.30;10.60;;;;;;;0.32;100.00;102110.34;4866921;29;20060;-84
2023/02/15 04:27:54;;;;;;;15.82;9.70;;;;;;;0.28;100.00;102116.13;4848366;29;20057;-79
2023/02/15 04:30:24;;;;;;;18.60;10.38;;;;;;;0.27;100.00;102111.78;4867148;29;20049;-78
2023/02/15 04:32:51;;;;;;;15.32;10.90;;;;;;;0.25;100.00;102111.69;4852926;29;20054;-77
2023/02/15 04:35:18;;;;;;;16.73;11.00;;;;;;;0.22;100.00;102116.69;4853619;29;20042;-79
2023/02/15 04:37:45;;;;;;;17.05;9.68;;;;;;;0.21;100.00;102122.63;4852350;29;20046;-77
2023/02/15 04:40:15;;;;;;;20.38;12.52;;;;;;;0.18;100.00;102113.81;4840488;29;20057;-79
2023/02/15 04:42:41;;;;;;;18.88;10.85;;;;;;;0.16;100.00;102109.47;4856723;29;20038;-78
2023/02/15 04:45:08;;;;;;;20.58;11.82;;;;;;;0.12;100.00;102098.94;4873678;29;20052;-80
2023/02/15 04:47:35;;;;;;;18.42;11.68;;;;;;;0.15;100.00;102102.53;4889532;29;20052;-82
2023/02/15 04:50:01;;;;;;;19.80;12.77;;;;;;;0.13;100.00;102101.59;4879144;29;20128;-83
2023/02/15 04:52:28;;;;;;;19.75;12.13;;;;;;;0.14;100.00;102095.63;4858215;29;20102;-81
2023/02/15 04:54:55;;;;;;;17.48;11.75;;;;;;;0.14;100.00;102087.91;4878876;29;20048;-78
2023/02/15 04:57:21;;;;;;;18.73;10.85;;;;;;;0.14;100.00;102087.00;4862707;29;20469;-80
2023/02/15 04:59:48;;;;;;;22.15;13.02;;;;;;;0.11;100.00;102092.00;4875833;29;20050;-81
2023/02/15 05:02:14;;;;;;;22.23;12.88;;;;;;;0.09;100.00;102085.84;4875410;29;20056;-82
2023/02/15 05:04:41;;;;;;;17.83;10.95;;;;;;;0.08;100.00;102089.22;4875783;29;20133;-80
2023/02/15 05:07:08;;;;;;;20.52;11.68;;;;;;;0.09;100.00;102079.03;4882382;29;20051;-78
2023/02/15 05:09:34;;;;;;;20.05;11.90;;;;;;;0.11;100.00;102085.13;4857571;29;20112;-81
2023/02/15 05:12:00;;;;;;;19.58;11.75;;;;;;;0.11;100.00;102087.72;4857579;29;20045;-81
2023/02/15 05:14:27;;;;;;;25.58;12.13;;;;;;;0.07;100.00;102083.19;4875205;29;20037;-78
2023/02/15 05:16:54;;;;;;;21.15;11.77;;;;;;;0.05;100.00;102089.94;4873891;29;20224;-79
2023/02/15 05:19:23;;;;;;;22.25;13.48;;;;;;;0.02;100.00;102088.91;4886519;29;20159;-83
2023/02/15 05:21:49;;;;;;;20.35;12.30;;;;;;;-0.01;100.00;102090.47;4853536;29;20084;-87
2023/02/15 05:29:44;;;;;;;22.55;13.93;;;;;;;-0.04;100.00;102081.69;4859307;29;20108;-79
2023/02/15 05:32:14;;;;;;;23.92;12.90;;;;;;;-0.04;100.00;102087.75;4857065;29;20428;-81
2023/02/15 05:34:40;;;;;;;20.58;12.32;;;;;;;-0.05;100.00;102080.81;4871228;29;20049;-81
2023/02/15 05:37:08;;;;;;;21.27;12.25;;;;;;;-0.03;100.00;102084.38;4855441;29;20033;-80
2023/02/15 05:39:34;;;;;;;21.88;13.05;;;;;;;-0.03;100.00;102081.81;4854875;29;20109;-84
2023/02/15 05:42:01;;;;;;;27.63;13.05;;;;;;;-0.04;100.00;102067.16;4854152;29;20113;-84
2023/02/15 05:44:28;;;;;;;29.13;14.63;;;;;;;0.05;100.00;102060.75;4848452;29;20056;-83
2023/02/15 05:46:54;;;;;;;22.30;12.63;;;;;;;0.11;100.00;102058.53;4872427;29;20053;-84
2023/02/15 05:49:21;;;;;;;24.38;14.27;;;;;;;0.16;100.00;102057.97;4855299;29;20037;-79
2023/02/15 05:51:48;;;;;;;25.27;13.55;;;;;;;0.14;100.00;102057.00;4886106;29;20052;-83
2023/02/15 05:54:14;;;;;;;20.70;12.60;;;;;;;0.14;100.00;102066.41;4858370;29;20049;-81
2023/02/15 05:56:41;;;;;;;28.48;14.05;;;;;;;0.10;100.00;102059.31;4862977;29;20590;-79
2023/02/15 05:59:07;;;;;;;25.48;14.70;;;;;;;0.11;100.00;102059.41;4856507;29;20055;-77
2023/02/15 06:01:35;;;;;;;23.67;14.82;;;;;;;0.09;100.00;102055.88;4870177;29;20064;-79
2023/02/15 06:04:01;;;;;;;21.95;12.63;;;;;;;0.08;100.00;102059.22;4860932;29;20052;-77
2023/02/15 06:06:28;;;;;;;25.73;13.52;;;;;;;0.05;100.00;102055.59;4856769;29;20051;-77
2023/02/15 06:08:54;;;;;;;26.48;15.68;;;;;;;0.03;100.00;102063.22;4842729;29;20087;-81
2023/02/15 06:11:21;;;;;;;27.38;13.80;;;;;;;-0.01;100.00;102057.00;4874262;29;20053;-79
2023/02/15 06:13:47;;;;;;;29.02;15.13;;;;;;;0.02;100.00;102061.44;4884268;29;20055;-79
2023/02/15 06:16:15;;;;;;;23.33;13.02;;;;;;;0.03;100.00;102062.31;4859467;29;20048;-77
2023/02/15 06:18:42;;;;;;;25.42;15.57;;;;;;;-0.01;100.00;102062.16;4882372;29;20049;-80
2023/02/15 06:21:09;;;;;;;22.23;13.98;;;;;;;0.01;100.00;102066.53;4873217;29;20056;-79
2023/02/15 06:23:35;;;;;;;23.00;14.60;;;;;;;-0.07;100.00;102066.94;4875996;29;20060;-79
2023/02/15 06:26:02;;;;;;;24.02;14.15;;;;;;;-0.10;100.00;102077.09;4859058;29;20077;-80
2023/02/15 06:28:28;;;;;;;23.92;14.68;;;;;;;-0.11;100.00;102069.28;4855532;29;20044;-78
2023/02/15 06:30:55;;;;;;;28.35;15.93;;;;;;;-0.11;100.00;102067.59;4856387;29;20040;-78
2023/02/15 06:33:22;;;;;;;29.88;14.65;;;;;;;-0.12;100.00;102063.22;4856582;29;20045;-77
2023/02/15 06:35:49;;;;;;;27.00;15.27;;;;;;;-0.11;100.00;102056.41;4872226;29;20086;-80
2023/02/15 06:38:15;;;;;;;26.38;13.25;;;;;;;-0.08;100.00;102052.34;4855983;29;20628;-78
2023/02/15 06:40:42;;;;;;;22.30;13.73;;;;;;;-0.09;100.00;102055.69;4858402;29;20053;-78
2023/02/15 06:43:08;;;;;;;23.50;13.35;;;;;;;-0.11;100.00;102054.72;4860022;29;20056;-81
2023/02/15 06:45:35;;;;;;;21.13;14.00;;;;;;;-0.13;100.00;102051.19;4860870;29;20722;-76
2023/02/15 06:48:01;;;;;;;25.85;15.75;;;;;;;-0.11;100.00;102048.69;4854888;29;20044;-78
2023/02/15 06:50:28;;;;;;;29.35;17.20;;;;;;;-0.09;100.00;102057.38;4874137;29;20041;-78
2023/02/15 06:52:58;;;;;;;22.23;13.45;;;;;;;-0.10;100.00;102060.75;4892015;29;20048;-82
2023/02/15 06:55:25;;;;;;;30.00;15.77;;;;;;;-0.10;100.00;102053.03;4865348;29;20444;-81
2023/02/15 06:57:52;;;;;;;25.85;13.60;;;;;;;-0.16;100.00;102053.56;4856870;29;20398;-78
2023/02/15 07:00:19;;;;;;;23.20;13.25;;;;;;;-0.17;100.00;102055.25;4856444;29;20518;-82
2023/02/15 07:02:45;;;;;;;28.05;14.55;;;;;;;-0.15;100.00;102055.34;4888729;29;20140;-80
2023/02/15 07:05:12;;;;;;;25.50;13.15;;;;;;;-0.12;100.00;102062.34;4864679;29;20078;-78
2023/02/15 07:07:48;;;;;;;29.08;14.52;;;;;;;-0.09;100.00;102057.38;4860243;29;20052;-86
2023/02/15 07:10:14;;;;;;;24.50;14.45;;;;;;;-0.05;100.00;102062.78;4870625;29;20087;-83
2023/02/15 07:12:44;;;;;;;26.35;15.07;;;;;;;-0.02;100.00;102049.22;4853426;29;20522;-81
2023/02/15 07:15:15;;;;;;;26.50;14.80;;;;;;;-0.03;100.00;102048.34;4864273;29;20045;-77
2023/02/15 07:17:41;;;;;;;26.23;13.50;;;;;;;0.00;100.00;102050.19;4860373;29;20548;-77
2023/02/15 07:20:15;;;;;;;27.50;15.75;;;;;;;-0.02;100.00;102050.09;4886282;29;20045;-78
2023/02/15 07:22:42;;;;;;;26.52;13.88;;;;;;;-0.01;100.00;102053.56;4861514;29;20049;-77
2023/02/15 07:25:12;;;;;;;25.90;13.55;;;;;;;-0.01;100.00;102062.16;4859284;29;20041;-83
2023/02/15 07:27:39;;;;;;;30.30;16.27;;;;;;;0.01;100.00;102056.22;4873659;29;20480;-77
2023/02/15 07:30:10;;;;;;;27.75;13.52;;;;;;;0.08;100.00;102071.19;4857899;29;20120;-82
2023/02/15 07:33:22;;;;;;;26.05;13.98;;;;;;;0.12;100.00;102060.31;4857230;29;20063;-79
2023/02/15 07:35:24;;;;;;;26.80;13.52;;;;;;;0.14;100.00;102062.16;4860285;29;20040;-77
2023/02/15 07:37:50;;;;;;;23.60;14.27;;;;;;;0.19;100.00;102059.81;4841904;29;20045;-76
2023/02/15 07:40:17;;;;;;;22.02;14.60;;;;;;;0.24;100.00;102060.97;4842929;29;20147;-78
2023/02/15 07:42:43;;;;;;;25.35;15.60;;;;;;;0.32;100.00;102059.69;4858567;29;20068;-79
2023/02/15 07:45:10;;;;;;;27.08;15.10;;;;;;;0.36;100.00;102050.47;4887617;29;20057;-80
2023/02/15 07:47:36;;;;;;;25.08;13.48;;;;;;;0.38;100.00;102061.75;4857370;29;20067;-80
2023/02/15 07:50:03;;;;;;;25.67;15.18;;;;;;;0.44;100.00;102053.47;4856072;29;20049;-87
2023/02/15 07:52:29;;;;;;;28.20;14.98;;;;;;;0.46;100.00;102051.88;4889830;29;20112;-85
2023/02/15 07:54:56;;;;;;;25.10;13.52;;;;;;;0.47;100.00;102053.63;4859995;29;20053;-77
2023/02/15 07:57:22;;;;;;;26.33;15.30;;;;;;;0.49;100.00;102052.91;4857456;29;20049;-82
2023/02/15 07:59:49;;;;;;;24.92;14.18;;;;;;;0.52;100.00;102053.88;4867765;29;20108;-82
2023/02/15 08:02:36;;;;;;;26.58;14.50;;;;;;;0.55;100.00;102047.22;4867577;29;20049;-80
2023/02/15 08:05:12;;;;;;;26.88;13.73;;;;;;;0.61;100.00;102036.34;4846601;29;20071;-78
2023/02/15 08:07:38;;;;;;;23.75;12.98;;;;;;;0.65;100.00;102040.84;4841287;29;20049;-81
2023/02/15 08:10:09;;;;;;;27.45;14.13;;;;;;;0.70;100.00;102029.09;4874368;29;20744;-78
2023/02/15 08:12:35;;;;;;;28.42;14.50;;;;;;;0.78;100.00;102040.72;4858039;29;20472;-79
2023/02/15 08:15:02;;;;;;;23.85;13.43;;;;;;;0.84;100.00;102034.13;4842401;29;20053;-80
2023/02/15 08:17:28;;;;;;;22.10;13.05;;;;;;;0.90;100.00;102035.34;4853369;29;20137;-80
2023/02/15 08:19:55;;;;;;;23.02;12.80;;;;;;;0.93;100.00;102021.72;4854643;29;20057;-81
2023/02/15 08:22:21;;;;;;;19.75;12.30;;;;;;;0.97;100.00;102029.69;4836125;29;20135;-79
2023/02/15 08:24:48;;;;;;;26.05;14.40;;;;;;;1.03;100.00;102016.25;4858551;29;20655;-78
2023/02/15 08:27:14;;;;;;;20.77;13.18;;;;;;;1.13;100.00;102025.31;4833772;29;20764;-81
2023/02/15 08:29:41;;;;;;;28.88;16.05;;;;;;;1.21;100.00;102012.81;4866801;29;20116;-78
2023/02/15 08:32:11;;;;;;;21.48;13.45;;;;;;;1.29;100.00;102008.94;4856858;29;20507;-77
2023/02/15 08:34:41;;;;;;;21.17;13.93;;;;;;;1.35;100.00;102006.66;4871469;29;20052;-81
2023/02/15 08:37:09;;;;;;;26.20;13.50;;;;;;;1.45;100.00;102010.63;4856081;29;20044;-84
2023/02/15 08:39:35;;;;;;;22.67;12.25;;;;;;;1.51;100.00;102005.75;4857455;29;20052;-80
2023/02/15 08:42:02;;;;;;;22.50;12.75;;;;;;;1.57;100.00;102005.19;4869395;29;20136;-78
2023/02/15 08:44:28;;;;;;;24.70;13.15;;;;;;;1.61;100.00;102001.94;4868852;29;20049;-80
2023/02/15 08:46:57;;;;;;;23.13;12.65;;;;;;;1.63;100.00;102006.38;4853800;29;20671;-80
2023/02/15 08:49:23;;;;;;;25.38;13.23;;;;;;;1.71;100.00;102011.00;4842057;29;20488;-82
2023/02/15 08:51:50;;;;;;;20.45;12.82;;;;;;;1.77;100.00;101999.31;4860502;29;20053;-79
2023/02/15 08:54:21;;;;;;;23.20;13.05;;;;;;;1.84;100.00;102003.06;4875496;29;20048;-77
2023/02/15 08:56:48;;;;;;;23.60;12.88;;;;;;;1.94;100.00;102005.28;4870883;29;21467;-77
2023/02/15 08:59:21;;;;;;;21.83;12.18;;;;;;;2.05;100.00;101994.59;4855913;29;20561;-79
2023/02/15 09:01:50;;;;;;;24.70;13.98;;;;;;;2.12;100.00;101996.63;4858347;29;20060;-77
2023/02/15 09:04:16;;;;;;;20.88;12.05;;;;;;;2.17;100.00;101992.56;4856680;29;20397;-84
2023/02/15 09:06:45;;;;;;;19.80;11.80;;;;;;;2.21;100.00;101996.19;4872972;29;20056;-77
2023/02/15 09:09:12;;;;;;;18.02;11.70;;;;;;;2.23;100.00;101999.72;4867050;29;20049;-78
2023/02/15 09:11:43;;;;;;;19.38;12.27;;;;;;;2.25;100.00;101992.94;4844247;29;20104;-83
2023/02/15 09:14:14;;;;;;;19.75;12.07;;;;;;;2.28;100.00;101993.06;4858507;29;20064;-81
2023/02/15 09:16:44;;;;;;;19.27;11.65;;;;;;;2.33;100.00;101991.56;4885599;29;20049;-79
2023/02/15 09:19:11;;;;;;;18.58;11.13;;;;;;;2.35;100.00;102002.88;4884431;29;20049;-82
2023/02/15 09:21:39;;;;;;;19.52;11.15;;;;;;;2.36;100.00;102003.75;4881840;29;20049;-77
2023/02/15 09:24:12;;;;;;;22.00;11.43;;;;;;;2.37;100.00;102003.81;4894205;29;20109;-85
2023/02/15 09:26:43;;;;;;;19.63;11.90;;;;;;;2.37;100.00;101998.66;4872662;29;20045;-79
2023/02/15 09:29:11;;;;;;;15.38;10.98;;;;;;;2.37;100.00;101997.78;4857605;29;20048;-78
2023/02/15 09:31:44;;;;;;;19.27;11.30;;;;;;;2.40;100.00;101990.16;4898837;29;20029;-86
2023/02/15 09:34:13;;;;;;;20.75;12.55;;;;;;;2.46;100.00;102001.69;4878942;29;20049;-77
2023/02/15 09:36:41;;;;;;;20.15;12.15;;;;;;;2.47;100.00;101995.69;4860039;29;20503;-79
2023/02/15 09:39:13;;;;;;;19.55;11.65;;;;;;;2.45;100.00;101989.56;4859962;29;20049;-78
2023/02/15 09:41:53;;;;;;;16.70;10.60;;;;;;;2.48;100.00;101994.00;4872766;29;20048;-83
2023/02/15 09:44:38;;;;;;;19.10;11.35;;;;;;;2.53;100.00;101996.78;4871867;29;20064;-81
2023/02/15 09:47:42;;;;;;;18.27;11.48;;;;;;;2.57;100.00;101999.59;4870447;29;20049;-78
2023/02/15 09:50:39;;;;;;;19.00;11.40;;;;;;;2.60;100.00;102002.28;4885947;29;20056;-79
2023/02/15 09:53:48;;;;;;;17.25;10.30;;;;;;;2.65;100.00;101997.34;4857701;29;20048;-83
2023/02/15 09:56:32;;;;;;;14.73;9.65;;;;;;;2.71;100.00;101995.03;4863275;29;20041;-78
2023/02/15 09:59:53;;;;;;;20.00;12.50;;;;;;;2.77;100.00;101990.13;4856900;29;20037;-79
2023/02/15 10:02:41;;;;;;;19.17;11.23;;;;;;;2.87;100.00;101987.94;4838189;29;20493;-78
2023/02/15 10:05:30;;;;;;;16.60;11.23;;;;;;;2.94;100.00;101995.16;4854034;29;20038;-77
2023/02/15 10:08:33;;;;;;;14.82;10.23;;;;;;;3.02;100.00;101993.78;4867786;29;20045;-79
2023/02/15 10:11:42;;;;;;;16.52;10.95;;;;;;;3.10;100.00;101989.84;4854862;29;20056;-78
2023/02/15 10:14:38;;;;;;;17.08;10.15;;;;;;;3.20;100.00;101991.13;4875605;29;20064;-80
2023/02/15 10:17:18;;;;;;;18.13;11.00;;;;;;;3.27;100.00;101990.56;4851632;29;20065;-79
2023/02/15 10:20:05;;;;;;;18.38;11.25;;;;;;;3.33;100.00;101995.13;4866494;29;20072;-84
2023/02/15 10:23:15;;;;;;;16.92;9.95;;;;;;;3.45;100.00;101980.09;4886862;29;20097;-79
2023/02/15 10:26:00;;;;;;;17.08;10.43;;;;;;;3.50;100.00;101979.41;4856133;29;20050;-84
2023/02/15 10:29:15;;;;;;;18.48;10.18;;;;;;;3.57;100.00;101977.16;4867818;29;20057;-79
2023/02/15 10:32:15;;;;;;;;;;;;;;;3.64;100.00;101973.09;4836987;29;20501;-78
2023/02/15 10:35:20;;;;;;;;;;;;;;;;;;;;;
2023/02/15 10:38:30;;;;;;;;;;;;;;;3.90;98.92;101970.69;4852489;29;20142;-80
2023/02/15 10:41:31;;;;;;;17.23;10.27;;;;;;;3.98;98.34;101974.44;4870068;29;19954;-81
2023/02/15 10:48:26;;;;;;;16.92;9.95;;;;;;;4.20;98.32;101972.66;4873417;29;20822;-79
2023/02/15 10:51:09;;;;;;;15.40;10.07;;;;;;;4.30;97.00;101965.31;4866936;29;21389;-78
2023/02/15 10:54:07;;;;;;;16.63;10.10;;;;;;;4.39;97.20;101966.50;4866993;29;20046;-78
2023/02/15 10:57:07;;;;;;;15.90;10.02;;;;;;;4.45;97.83;101965.00;4878902;29;20042;-78
2023/02/15 10:59:59;;;;;;;14.60;10.80;;;;;;;4.52;97.06;101963.53;4869826;23;20076;-78
2023/02/15 11:03:25;;;;;;;16.42;10.27;;;;;;;4.58;96.71;101963.75;4850053;29;20053;-77
2023/02/15 11:06:11;;;;;;;16.77;8.52;;;;;;;4.63;96.47;101953.56;4854598;29;20082;-80
2023/02/15 11:08:47;;;;;;;13.43;9.57;;;;;;;4.70;96.06;101946.88;4846037;29;20041;-83
2023/02/15 11:11:22;;;;;;;16.52;10.38;;;;;;;4.72;96.08;101948.69;4860994;29;20513;-83
2023/02/15 11:13:55;;;;;;;16.48;11.23;;;;;;;4.78;95.92;101953.22;4847256;29;20607;-83
2023/02/15 11:16:35;;;;;;;18.50;10.43;;;;;;;4.83;95.45;101954.25;4862831;29;20097;-87
2023/02/15 11:19:20;;;;;;;15.60;9.98;;;;;;;4.94;95.17;101950.34;4859638;29;20046;-87
2023/02/15 11:21:54;;;;;;;18.08;11.52;;;;;;;5.06;94.79;101934.31;4858823;29;20166;-87
2023/02/15 11:24:21;;;;;;;22.40;10.57;;;;;;;5.17;93.88;101949.38;4856536;29;20049;-81
2023/02/15 11:26:58;;;;;;;15.85;10.48;;;;;;;5.21;92.91;101941.72;4860452;29;20107;-79
2023/02/15 11:30:26;;;;;;;14.85;9.93;;;;;;;5.28;92.63;101942.84;4845781;29;20054;-80
2023/02/15 11:32:58;;;;;;;20.15;10.60;;;;;;;5.28;93.57;101935.06;4836925;29;20073;-84
2023/02/15 11:35:35;;;;;;;17.55;10.35;;;;;;;5.34;92.77;101935.25;4872813;29;20046;-82
2023/02/15 11:38:21;;;;;;;14.25;9.35;;;;;;;5.37;92.60;101940.56;4856422;29;20042;-82
2023/02/15 11:40:54;;;;;;;16.77;10.43;;;;;;;5.42;91.79;101932.91;4838590;29;20046;-81
2023/02/15 11:43:47;;;;;;;16.13;10.27;;;;;;;5.53;91.58;101928.94;4834313;29;20060;-81
2023/02/15 11:46:18;;;;;;;16.77;9.85;;;;;;;5.66;92.18;101926.72;4871965;29;20071;-82
2023/02/15 11:48:45;;;;;;;14.48;9.45;;;;;;;5.71;91.47;101927.75;4869462;29;20377;-84
2023/02/15 11:51:19;;;;;;;17.80;11.07;;;;;;;5.79;90.47;101923.69;4857867;29;20039;-79
2023/02/15 11:53:46;;;;;;;;;;;;;;;5.88;89.90;101925.69;4860824;29;20093;-82
2023/02/15 11:56:19;;;;;;;18.17;10.35;;;;;;;5.93;89.83;101917.22;4870415;29;19938;-77
2023/02/15 11:58:55;;;;;;;16.60;11.10;;;;;;;6.04;89.99;101916.69;4854924;29;20073;-80
2023/02/15 12:01:39;;;;;;;16.05;10.82;;;;;;;6.09;89.61;101910.78;4865064;29;20050;-79
2023/02/15 12:04:29;;;;;;;17.40;9.40;;;;;;;6.16;88.72;101908.38;4863795;29;20136;-85
2023/02/15 12:07:07;;;;;;;14.32;9.10;;;;;;;6.22;89.06;101904.22;4843771;29;20045;-78
2023/02/15 12:09:57;;;;;;;15.77;10.10;;;;;;;6.35;88.73;101908.06;4861470;29;20082;-80
2023/02/15 12:12:31;;;;;;;11.77;9.20;;;;;;;6.49;87.37;101898.03;4847019;29;20052;-77